Gallman, Mississippi
Current Conditions -  °F | °C
As of 12:15 AM on Saturday 29 Nov 2014 (Local Time) from K1R7 Reporting Station
Clear Clear  
Wind Chill: 41°   Ceiling: Unl
Heat Index: 45°   Visibility: 10mi
Dew Point: 39°   Wind: 6mph
Humidity: 81%   Direction: 160°SSE
Pressure: 30.22"   Gusts: NA
Location:  31.93°N, 90.39°W
Report Text: K1R7 290615Z AUTO 16005KT 10SM CLR 07/04 A3022 RMK AO2
Loading
Personal Weather Stations






























Interactive Weather Map New forecast layout! Learn more

10-Day Weather Forecast

Advertisements
Track Severe Weather on mobile